Killeen-Fort Hood Regional, TX

10:23 PM CDT on July 25, 2016 (GMT -0500)
Fort Hood | | Change Station

Elev 1014 ft 31.07 °N, 97.83 °W | Updated 25 minutes ago

Overcast
Overcast
76 °F
Feels Like 76 °F
N
9
Wind Variable Wind from SE

Today
High -- | Low -- °F
--% Chance of Precip.
Yesterday
High -- | Low -- °F
Precip. -- in
Pressure 29.93 in
Visibility 10.0 miles
Clouds Scattered Clouds 16000 ft
Overcast 18000 ft
Dew Point 72 °F
Humidity 89%
Rainfall 0.02 in
Snow Depth Not available.
6:44 AM 8:30 PM
Waning Gibbous, 59% visible
METAR KGRK 260258Z AUTO 14008KT 10SM SCT160 OVC180 24/22 A2996 RMK AO2 SLP134 60002 T02420223 50012
Pressure 29.93 in
Visibility 10.0 miles
Clouds Scattered Clouds 16000 ft
Overcast 18000 ft
Dew Point 72 °F
Humidity 89%
Rainfall 0.02 in
Snow Depth Not available.
6:44 AM 8:30 PM
Waning Gibbous, 59% visible
METAR KGRK 260258Z AUTO 14008KT 10SM SCT160 OVC180 24/22 A2996 RMK AO2 SLP134 60002 T02420223 50012

10-Day Weather Forecast

Almanac

Astronomy

Jul. 25, 2016 Rise Set
Actual Time
Civil Twilight
Nautical Twilight
Astronomical Twilight
Moon
Length of Visible Light
Length of Day
Tomorrow will be .
, % of the Moon is Illuminated

Today's Extremes

State Highs State Lows

Community

WunderPhotos

Upload Photos

1,927,522 photos uploaded!

WunderBlog® & News

Nearby

Air Quality

  Air Quality AQ Index Pollutant
Not available.

Snow Depth

Station Depth Elevation

Earthquake Activity

City Distance Mag. Time & Date
Minimum magnitude displayed is 2.5.

Coastal Water Temperatures

Place Temperature

Stations

Nearby Weather Stations

Station Location Temp. Windchill Dew Point Humidity Wind Precip. Elev Updated Type
                   

Watches & Warnings

There are currently no watches in effect.